createdAt,value
2023-03-16T00:00:32.875Z,99.90
2023-03-16T00:05:36.940Z,99.90
2023-03-16T00:10:39.675Z,99.90
2023-03-16T00:15:42.394Z,99.90
2023-03-16T00:20:46.428Z,99.90
2023-03-16T00:25:49.113Z,99.90
2023-03-16T00:30:52.153Z,99.90
2023-03-16T00:36:02.602Z,99.90
2023-03-16T00:41:08.119Z,99.90
2023-03-16T00:46:12.997Z,99.90
2023-03-16T00:51:18.771Z,99.90
2023-03-16T00:56:21.564Z,99.90
2023-03-16T01:01:24.863Z,99.90
2023-03-16T01:06:29.249Z,99.90
2023-03-16T01:11:33.709Z,99.90
2023-03-16T01:16:36.758Z,99.90
2023-03-16T01:21:40.914Z,99.90
2023-03-16T01:26:45.089Z,99.90
2023-03-16T01:31:48.400Z,99.90
2023-03-16T01:36:52.462Z,99.90
2023-03-16T01:41:55.270Z,99.90
2023-03-16T01:46:57.974Z,99.90
2023-03-16T01:52:07.774Z,99.90
2023-03-16T01:57:12.653Z,99.90
2023-03-16T02:02:18.402Z,99.90
2023-03-16T02:07:25.216Z,99.90
2023-03-16T02:12:29.249Z,99.90
2023-03-16T02:17:33.214Z,99.90
2023-03-16T02:22:38.821Z,99.90
2023-03-16T02:27:47.246Z,99.90
2023-03-16T02:32:53.125Z,99.90
2023-03-16T02:37:55.833Z,99.90
2023-03-16T02:43:03.651Z,99.90
2023-03-16T02:48:14.634Z,99.90
2023-03-16T02:53:18.053Z,99.90
2023-03-16T02:58:21.082Z,99.90
2023-03-16T03:03:25.490Z,99.90
2023-03-16T03:08:28.426Z,99.90
2023-03-16T03:13:31.580Z,99.90
2023-03-16T03:18:35.568Z,99.90
2023-03-16T03:23:38.265Z,99.90
2023-03-16T03:28:41.220Z,99.90
2023-03-16T03:33:45.364Z,99.90
2023-03-16T03:38:49.548Z,99.90
2023-03-16T03:43:52.237Z,99.90
2023-03-16T03:48:58.293Z,99.90
2023-03-16T03:54:00.956Z,99.90
2023-03-16T03:59:03.721Z,99.90
2023-03-16T04:04:07.728Z,99.90
2023-03-16T04:09:11.386Z,99.90
2023-03-16T04:14:14.164Z,99.90
2023-03-16T04:19:18.239Z,99.90
2023-03-16T04:24:22.435Z,99.90
2023-03-16T04:29:25.439Z,99.90
2023-03-16T04:34:31.952Z,99.90
2023-03-16T04:39:34.601Z,99.90
2023-03-16T04:44:43.989Z,99.90
2023-03-16T04:49:47.937Z,99.90
2023-03-16T04:54:51.715Z,99.90
2023-03-16T04:59:54.365Z,99.90
2023-03-16T05:04:58.347Z,99.90
2023-03-16T05:10:01.033Z,99.90
2023-03-16T05:15:03.965Z,99.90
2023-03-16T05:20:14.052Z,99.90
2023-03-16T05:25:19.854Z,99.90
2023-03-16T05:30:22.626Z,99.90
2023-03-16T05:35:28.024Z,99.90
2023-03-16T05:40:31.467Z,99.90
2023-03-16T05:45:34.245Z,99.90
2023-03-16T05:50:38.276Z,99.90
2023-03-16T05:55:41.313Z,99.90
2023-03-16T06:00:44.055Z,99.90
2023-03-16T06:05:48.395Z,99.90
2023-03-16T06:10:51.007Z,99.90
2023-03-16T06:15:53.732Z,99.90
2023-03-16T06:20:57.750Z,99.90
2023-03-16T06:26:01.237Z,99.90
2023-03-16T06:31:03.983Z,99.90
2023-03-16T06:36:08.789Z,99.90
2023-03-16T06:41:12.170Z,99.90
2023-03-16T06:46:14.862Z,99.90
2023-03-16T06:51:18.946Z,99.90
2023-03-16T06:56:21.578Z,99.90
2023-03-16T07:01:24.659Z,99.90
2023-03-16T07:06:28.766Z,99.90
2023-03-16T07:11:32.447Z,99.90
2023-03-16T07:16:35.331Z,99.90
2023-03-16T07:21:40.760Z,99.90
2023-03-16T07:26:43.716Z,99.90
2023-03-16T07:31:46.512Z,99.90
2023-03-16T07:36:52.638Z,99.90
2023-03-16T07:41:55.395Z,99.90
2023-03-16T07:46:58.334Z,99.90
2023-03-16T07:52:02.601Z,99.90
2023-03-16T07:57:05.298Z,99.90
2023-03-16T08:02:08.154Z,99.90
2023-03-16T08:07:13.003Z,1.00
2023-03-16T08:12:16.019Z,99.90
2023-03-16T08:17:18.749Z,1.00
2023-03-16T08:22:22.801Z,1.00
2023-03-16T08:27:25.984Z,1.00
2023-03-16T08:32:28.741Z,1.00
2023-03-16T08:37:32.720Z,1.00
2023-03-16T08:42:35.377Z,1.00
2023-03-16T08:47:38.602Z,99.90
2023-03-16T08:52:42.793Z,99.90
2023-03-16T08:57:46.379Z,99.90
2023-03-16T09:02:49.050Z,99.90
2023-03-16T09:07:53.591Z,99.90
2023-03-16T09:12:56.607Z,99.90
2023-03-16T09:18:00.610Z,99.90
2023-03-16T09:23:04.910Z,99.90
2023-03-16T09:28:08.616Z,99.90
2023-03-16T09:33:11.365Z,99.90
2023-03-16T09:38:15.706Z,99.90
2023-03-16T09:43:30.500Z,99.90
2023-03-16T09:48:36.458Z,99.90
2023-03-16T09:53:41.895Z,99.90
2023-03-16T09:58:45.655Z,99.90
2023-03-16T10:04:02.707Z,99.90
2023-03-16T10:09:18.974Z,99.90
2023-03-16T10:14:26.403Z,99.90
2023-03-16T10:19:35.571Z,99.90
2023-03-16T10:24:49.199Z,99.90
2023-03-16T10:29:51.987Z,99.90
2023-03-16T10:34:59.592Z,99.90
2023-03-16T10:40:09.094Z,99.90
2023-03-16T10:45:25.324Z,99.90
2023-03-16T10:50:28.433Z,99.90
2023-03-16T10:55:41.767Z,99.90
2023-03-16T11:00:47.060Z,99.90
2023-03-16T11:05:57.387Z,99.90
2023-03-16T11:11:09.264Z,99.90
2023-03-16T11:16:23.908Z,99.90
2023-03-16T11:21:38.535Z,99.90
2023-03-16T11:26:43.246Z,99.90
2023-03-16T11:31:53.297Z,99.90
2023-03-16T11:36:59.857Z,99.90
2023-03-16T11:42:20.942Z,99.90
2023-03-16T11:47:36.641Z,99.90
2023-03-16T11:52:53.141Z,99.90
2023-03-16T11:58:08.216Z,99.90
2023-03-16T12:03:42.481Z,99.90
2023-03-16T12:09:04.370Z,99.90
2023-03-16T12:14:19.753Z,99.90
2023-03-16T12:19:25.364Z,99.90
2023-03-16T12:24:32.398Z,99.90
2023-03-16T12:29:42.802Z,99.90
2023-03-16T12:34:53.649Z,99.90
2023-03-16T12:40:09.041Z,99.90
2023-03-16T12:45:18.121Z,99.90
2023-03-16T12:50:21.478Z,99.90
2023-03-16T12:55:27.987Z,99.90
2023-03-16T13:00:37.582Z,99.90
2023-03-16T13:05:46.280Z,99.90
2023-03-16T13:11:02.065Z,99.90
2023-03-16T13:16:09.412Z,99.90
2023-03-16T13:21:18.975Z,99.90
2023-03-16T13:26:35.396Z,99.90
2023-03-16T13:31:42.700Z,99.90
2023-03-16T13:36:46.317Z,99.90
2023-03-16T13:42:01.034Z,99.90
2023-03-16T13:47:07.338Z,99.90
2023-03-16T13:52:15.617Z,99.90
2023-03-16T13:57:21.713Z,99.90
2023-03-16T14:02:26.105Z,99.90
2023-03-16T14:07:28.802Z,99.90
2023-03-16T14:12:31.452Z,99.90
2023-03-16T14:17:35.472Z,99.90
2023-03-16T14:22:39.093Z,99.90
2023-03-16T14:27:47.397Z,99.90
2023-03-16T14:33:00.092Z,99.90
2023-03-16T14:38:21.293Z,99.90
2023-03-16T14:43:29.660Z,99.90
2023-03-16T14:48:35.284Z,99.90
2023-03-16T14:53:38.243Z,99.90
2023-03-16T14:58:41.691Z,99.90
2023-03-16T15:03:46.573Z,99.90
2023-03-16T15:08:50.898Z,99.90
2023-03-16T15:14:03.798Z,99.90
2023-03-16T15:19:08.276Z,99.90
2023-03-16T15:24:14.359Z,99.90
2023-03-16T15:29:19.753Z,99.90
2023-03-16T15:34:23.860Z,99.90
2023-03-16T15:39:41.502Z,99.90
2023-03-16T15:44:45.202Z,99.90
2023-03-16T15:49:49.529Z,99.90
2023-03-16T15:54:52.886Z,99.90
2023-03-16T15:59:55.644Z,99.90
2023-03-16T16:05:00.732Z,99.90
2023-03-16T16:10:03.471Z,99.90
2023-03-16T16:15:21.597Z,99.90
2023-03-16T16:20:28.295Z,99.90
2023-03-16T16:25:39.144Z,99.90
2023-03-16T16:30:41.832Z,99.90
2023-03-16T16:35:45.870Z,99.90
2023-03-16T16:40:49.050Z,99.90
2023-03-16T16:45:51.759Z,99.90
2023-03-16T16:50:56.115Z,99.90
2023-03-16T16:55:58.832Z,99.90
2023-03-16T17:01:01.937Z,99.90
2023-03-16T17:06:06.849Z,99.90
2023-03-16T17:11:14.140Z,1.00
2023-03-16T17:16:21.305Z,1.00
2023-03-16T17:21:28.254Z,1.00
2023-03-16T17:26:35.570Z,1.00
2023-03-16T17:31:41.923Z,1.00
2023-03-16T17:36:46.159Z,1.00
2023-03-16T17:41:50.155Z,1.00
2023-03-16T17:46:54.490Z,1.00
2023-03-16T17:51:58.813Z,1.00
2023-03-16T17:57:01.656Z,28.60
2023-03-16T18:02:05.629Z,60.30
2023-03-16T18:07:14.089Z,99.90
2023-03-16T18:12:16.759Z,99.90
2023-03-16T18:17:26.955Z,95.80
2023-03-16T18:22:31.038Z,53.00
2023-03-16T18:27:34.488Z,28.40
2023-03-16T18:32:37.602Z,52.30
2023-03-16T18:37:42.239Z,1.00
2023-03-16T18:42:45.166Z,1.00
2023-03-16T18:47:51.980Z,1.00
2023-03-16T18:52:57.272Z,1.00
2023-03-16T18:58:00.327Z,99.90
2023-03-16T19:03:04.108Z,91.00
2023-03-16T19:08:08.194Z,52.10
2023-03-16T19:13:17.069Z,93.30
2023-03-16T19:18:20.157Z,99.90
2023-03-16T19:23:29.183Z,99.90
2023-03-16T19:28:36.470Z,99.90
2023-03-16T19:33:40.888Z,99.90
2023-03-16T19:38:46.245Z,99.90
2023-03-16T19:43:48.984Z,99.90
2023-03-16T19:48:54.878Z,99.90
2023-03-16T20:47:13.046Z,1.00
2023-03-16T20:59:20.529Z,99.90
2023-03-16T21:05:03.590Z,1.00
2023-03-16T21:10:45.261Z,1.00
2023-03-16T21:41:46.908Z,1.00
2023-03-16T21:54:09.077Z,1.00
2023-03-16T22:06:54.621Z,1.00
2023-03-16T22:37:31.083Z,1.00
2023-03-16T22:42:37.082Z,1.00
2023-03-16T22:47:39.802Z,1.00
2023-03-16T22:52:45.495Z,1.00
2023-03-16T22:57:49.903Z,1.00
2023-03-16T23:02:53.165Z,1.00
2023-03-16T23:07:57.757Z,1.00
2023-03-16T23:13:01.981Z,99.90
2023-03-16T23:18:05.034Z,99.90
2023-03-16T23:23:09.101Z,99.90
2023-03-16T23:28:16.160Z,74.80
2023-03-16T23:33:18.795Z,10.00
2023-03-16T23:38:22.833Z,1.00
2023-03-16T23:43:25.663Z,1.00
2023-03-16T23:48:28.460Z,1.00
2023-03-16T23:53:32.576Z,1.00
2023-03-16T23:58:35.490Z,1.00
